createdAt,value
2019-05-16T00:01:33.254Z,6.30
2019-05-16T00:04:03.825Z,6.28
2019-05-16T00:06:34.171Z,6.36
2019-05-16T00:12:20.092Z,6.31
2019-05-16T00:14:50.467Z,6.38
2019-05-16T00:17:21.061Z,6.33
2019-05-16T00:19:51.374Z,6.34
2019-05-16T00:22:23.471Z,6.37
2019-05-16T00:24:53.995Z,6.34
2019-05-16T00:27:24.409Z,6.36
2019-05-16T00:30:14.192Z,6.39
2019-05-16T00:32:48.198Z,6.37
2019-05-16T00:35:29.279Z,6.40
2019-05-16T00:37:59.662Z,6.41
2019-05-16T00:40:30.032Z,6.51
2019-05-16T00:43:00.505Z,6.43
2019-05-16T00:45:30.910Z,6.45
2019-05-16T00:48:01.409Z,6.48
2019-05-16T00:50:31.796Z,6.44
2019-05-16T00:53:02.178Z,6.47
2019-05-16T00:55:32.740Z,6.39
2019-05-16T01:04:08.682Z,6.42
2019-05-16T01:06:39.184Z,6.49
2019-05-16T01:09:09.568Z,6.46
2019-05-16T01:11:39.943Z,6.47
2019-05-16T01:14:10.334Z,6.42
2019-05-16T01:16:40.810Z,6.43
2019-05-16T01:19:11.182Z,6.34
2019-05-16T01:21:41.577Z,6.32
2019-05-16T01:24:11.963Z,6.33
2019-05-16T01:26:42.330Z,6.39
2019-05-16T01:29:12.769Z,6.37
2019-05-16T01:31:43.080Z,6.38
2019-05-16T01:34:13.492Z,6.41
2019-05-16T01:37:03.272Z,6.41
2019-05-16T01:39:33.938Z,6.49
2019-05-16T01:42:04.273Z,6.46
2019-05-16T01:44:34.672Z,6.44
2019-05-16T01:47:08.844Z,6.52
2019-05-16T01:49:49.699Z,6.52
2019-05-16T01:52:20.249Z,6.54
2019-05-16T01:54:50.733Z,6.55
2019-05-16T01:57:40.505Z,6.61
2019-05-16T02:03:13.212Z,6.57
2019-05-16T02:05:43.627Z,6.65
2019-05-16T02:08:14.109Z,6.71
2019-05-16T02:10:44.561Z,6.69
2019-05-16T02:13:14.957Z,6.71
2019-05-16T02:15:48.827Z,6.68
2019-05-16T02:18:30.209Z,6.71
2019-05-16T02:21:01.399Z,6.67
2019-05-16T02:23:43.957Z,6.70
2019-05-16T02:26:14.407Z,6.72
2019-05-16T02:28:44.783Z,6.66
2019-05-16T02:31:15.783Z,6.70
2019-05-16T02:34:06.801Z,6.69
2019-05-16T02:36:40.232Z,6.69
2019-05-16T02:39:30.520Z,6.76
2019-05-16T02:46:01.286Z,6.79
2019-05-16T02:48:36.455Z,6.76
2019-05-16T02:51:06.902Z,6.81
2019-05-16T02:53:37.286Z,6.76
2019-05-16T02:56:07.908Z,6.77
2019-05-16T02:58:44.163Z,6.79
2019-05-16T03:01:15.777Z,6.80
2019-05-16T03:03:46.201Z,6.83
2019-05-16T03:06:16.672Z,6.83
2019-05-16T03:14:54.631Z,6.83
2019-05-16T03:23:50.781Z,6.83
2019-05-16T03:26:33.350Z,6.79
2019-05-16T03:29:03.713Z,6.76
2019-05-16T03:31:34.643Z,6.78
2019-05-16T03:34:24.466Z,6.65
2019-05-16T03:36:55.411Z,6.66
2019-05-16T03:39:32.675Z,6.71
2019-05-16T03:42:04.693Z,6.67
2019-05-16T03:44:35.084Z,6.72
2019-05-16T03:47:05.550Z,6.68
2019-05-16T03:49:35.928Z,6.67
2019-05-16T03:52:06.326Z,6.63
2019-05-16T03:54:36.693Z,6.60
2019-05-16T03:57:26.473Z,6.60
2019-05-16T03:59:56.922Z,6.57
2019-05-16T04:02:30.651Z,6.64
2019-05-16T04:05:52.610Z,6.56
2019-05-16T04:08:30.704Z,6.63
2019-05-16T04:11:11.616Z,6.55
2019-05-16T04:13:52.893Z,6.57
2019-05-16T04:16:23.251Z,6.57
2019-05-16T04:18:53.603Z,6.58
2019-05-16T04:21:24.005Z,6.52
2019-05-16T04:23:54.326Z,6.55
2019-05-16T04:26:24.760Z,6.68
2019-05-16T04:28:55.164Z,6.69
2019-05-16T04:31:25.536Z,6.65
2019-05-16T04:33:55.886Z,6.68
2019-05-16T04:36:26.253Z,6.68
2019-05-16T04:38:56.676Z,6.71
2019-05-16T04:41:27.055Z,6.74
2019-05-16T04:44:01.476Z,6.74
2019-05-16T04:46:42.417Z,6.79
2019-05-16T04:49:12.774Z,6.79
2019-05-16T04:51:43.172Z,6.84
2019-05-16T04:54:13.522Z,6.88
2019-05-16T04:57:23.338Z,6.83
2019-05-16T04:59:53.766Z,6.96
2019-05-16T05:02:24.209Z,6.93
2019-05-16T05:04:54.617Z,6.91
2019-05-16T05:07:24.992Z,6.93
2019-05-16T05:09:55.365Z,6.91
2019-05-16T05:12:45.298Z,6.88
2019-05-16T05:15:35.048Z,6.91
2019-05-16T05:18:24.826Z,6.95
2019-05-16T05:21:14.591Z,6.94
2019-05-16T05:23:45.119Z,6.94
2019-05-16T05:26:16.050Z,7.00
2019-05-16T05:28:46.394Z,7.01
2019-05-16T05:31:16.862Z,7.10
2019-05-16T05:33:47.233Z,7.20
2019-05-16T05:36:17.663Z,7.13
2019-05-16T05:38:49.143Z,7.19
2019-05-16T05:41:40.142Z,7.16
2019-05-16T05:44:22.997Z,7.14
2019-05-16T05:46:53.396Z,7.17
2019-05-16T05:49:23.858Z,7.17
2019-05-16T05:51:54.383Z,7.29
2019-05-16T05:54:24.797Z,7.26
2019-05-16T05:56:55.218Z,7.27
2019-05-16T05:59:25.792Z,7.32
2019-05-16T06:01:56.169Z,7.40
2019-05-16T06:04:26.560Z,7.46
2019-05-16T06:06:56.918Z,7.40
2019-05-16T06:09:53.547Z,7.45
2019-05-16T06:12:30.389Z,7.42
2019-05-16T06:18:10.833Z,7.82
2019-05-16T06:21:01.290Z,7.78
2019-05-16T06:23:31.743Z,7.81
2019-05-16T06:26:02.084Z,7.87
2019-05-16T06:28:32.507Z,7.87
2019-05-16T06:31:02.891Z,8.06
2019-05-16T06:33:33.256Z,8.11
2019-05-16T06:36:03.580Z,8.36
2019-05-16T06:38:34.004Z,8.49
2019-05-16T06:41:04.339Z,8.66
2019-05-16T06:43:34.711Z,8.84
2019-05-16T06:46:05.083Z,8.67
2019-05-16T06:48:35.400Z,8.59
2019-05-16T06:51:05.752Z,8.58
2019-05-16T06:53:36.169Z,8.78
2019-05-16T06:56:06.535Z,8.61
2019-05-16T06:58:45.741Z,8.63
2019-05-16T07:01:14.346Z,8.77
2019-05-16T07:04:05.100Z,8.53
2019-05-16T07:06:56.233Z,8.55
2019-05-16T07:09:30.393Z,8.55
2019-05-16T07:12:00.852Z,8.50
2019-05-16T07:14:31.544Z,8.51
2019-05-16T07:17:50.461Z,8.35
2019-05-16T07:20:25.582Z,8.40
2019-05-16T07:22:56.102Z,8.39
2019-05-16T07:25:26.568Z,8.50
2019-05-16T07:27:56.925Z,8.37
2019-05-16T07:30:27.301Z,8.37
2019-05-16T07:32:57.757Z,8.37
2019-05-16T07:35:51.180Z,8.47
2019-05-16T07:38:33.778Z,8.63
2019-05-16T07:41:23.612Z,8.59
2019-05-16T07:43:53.974Z,8.80
2019-05-16T07:46:24.347Z,8.78
2019-05-16T07:49:14.137Z,9.00
2019-05-16T07:52:03.875Z,8.90
2019-05-16T07:54:53.722Z,8.93
2019-05-16T07:57:24.120Z,9.06
2019-05-16T07:59:56.355Z,9.26
2019-05-16T08:02:26.708Z,9.35
2019-05-16T08:04:57.081Z,9.34
2019-05-16T08:07:46.810Z,9.47
2019-05-16T08:10:45.350Z,9.64
2019-05-16T08:13:30.626Z,9.55
2019-05-16T08:16:11.055Z,9.64
2019-05-16T08:18:45.108Z,9.78
2019-05-16T08:21:33.037Z,9.91
2019-05-16T08:24:07.374Z,10.02
2019-05-16T08:26:54.873Z,9.83
2019-05-16T08:29:44.624Z,9.75
2019-05-16T08:32:34.408Z,9.86
2019-05-16T08:35:24.171Z,9.75
2019-05-16T08:38:13.985Z,9.69
2019-05-16T08:41:12.423Z,9.72
2019-05-16T08:43:46.687Z,9.85
2019-05-16T08:46:17.034Z,10.03
2019-05-16T08:49:06.806Z,10.07
2019-05-16T08:51:56.578Z,10.20
2019-05-16T08:54:26.943Z,10.48
2019-05-16T08:57:07.501Z,10.56
2019-05-16T08:59:35.133Z,10.66
2019-05-16T09:02:05.511Z,10.83
2019-05-16T09:04:35.885Z,10.82
2019-05-16T09:07:06.334Z,10.89
2019-05-16T09:09:46.890Z,10.93
2019-05-16T09:12:19.985Z,11.01
2019-05-16T09:17:53.007Z,10.61
2019-05-16T09:20:23.388Z,10.98
2019-05-16T09:22:53.846Z,11.36
2019-05-16T09:25:24.295Z,11.67
2019-05-16T09:27:56.893Z,11.56
2019-05-16T09:30:38.080Z,11.86
2019-05-16T09:33:08.590Z,11.90
2019-05-16T09:35:39.027Z,12.21
2019-05-16T09:38:09.414Z,12.45
2019-05-16T09:40:39.853Z,12.40
2019-05-16T09:43:10.232Z,12.24
2019-05-16T09:45:40.684Z,12.29
2019-05-16T09:48:11.164Z,12.50
2019-05-16T09:50:41.635Z,12.51
2019-05-16T09:53:11.996Z,13.13
2019-05-16T09:55:42.448Z,13.41
2019-05-16T09:58:12.890Z,13.42
2019-05-16T10:00:43.402Z,13.01
2019-05-16T10:03:13.806Z,12.91
2019-05-16T10:06:03.609Z,13.16
2019-05-16T10:08:34.263Z,13.18
2019-05-16T10:11:31.120Z,12.69
2019-05-16T10:14:08.740Z,13.02
2019-05-16T10:16:39.096Z,13.04
2019-05-16T10:19:09.471Z,12.97
2019-05-16T10:21:39.905Z,12.85
2019-05-16T10:24:10.379Z,12.98
2019-05-16T10:26:40.856Z,12.50
2019-05-16T10:29:11.342Z,12.79
2019-05-16T10:31:49.274Z,13.23
2019-05-16T10:34:33.236Z,12.94
2019-05-16T10:37:03.687Z,13.35
2019-05-16T10:39:34.134Z,12.94
2019-05-16T10:42:06.653Z,13.15
2019-05-16T10:44:57.685Z,13.49
2019-05-16T10:47:33.727Z,13.84
2019-05-16T10:50:23.529Z,14.07
2019-05-16T10:53:20.668Z,14.15
2019-05-16T10:55:47.635Z,13.92
2019-05-16T10:58:37.238Z,13.93
2019-05-16T11:01:24.377Z,13.65
2019-05-16T11:03:49.453Z,13.83
2019-05-16T11:06:25.647Z,14.13
2019-05-16T11:09:11.271Z,14.15
2019-05-16T11:12:01.091Z,14.24
2019-05-16T11:14:50.852Z,13.72
2019-05-16T11:17:40.648Z,13.85
2019-05-16T11:20:12.775Z,13.56
2019-05-16T11:22:43.252Z,14.26
2019-05-16T11:25:24.198Z,14.71
2019-05-16T11:27:51.309Z,14.85
2019-05-16T11:33:24.176Z,14.54
2019-05-16T11:35:54.553Z,14.81
2019-05-16T11:38:25.019Z,14.76
2019-05-16T11:40:56.849Z,14.29
2019-05-16T11:43:38.624Z,14.29
2019-05-16T11:46:28.436Z,14.67
2019-05-16T11:48:58.829Z,14.95
2019-05-16T11:51:29.230Z,15.16
2019-05-16T11:54:00.166Z,15.91
2019-05-16T11:56:51.213Z,15.74
2019-05-16T11:59:21.625Z,15.78
2019-05-16T12:01:51.971Z,15.66
2019-05-16T12:04:22.361Z,15.67
2019-05-16T12:06:52.783Z,15.82
2019-05-16T12:09:23.382Z,16.48
2019-05-16T12:11:59.730Z,16.24
2019-05-16T12:14:37.190Z,16.36
2019-05-16T12:17:07.599Z,16.49
2019-05-16T12:19:43.591Z,16.59
2019-05-16T12:22:21.121Z,16.82
2019-05-16T12:24:51.675Z,16.93
2019-05-16T12:27:22.206Z,16.86
2019-05-16T12:29:56.194Z,17.28
2019-05-16T12:32:44.181Z,17.82
2019-05-16T12:35:17.372Z,18.76
2019-05-16T12:38:08.127Z,18.32
2019-05-16T12:40:43.955Z,17.43
2019-05-16T12:43:14.454Z,17.57
2019-05-16T12:45:47.135Z,17.35
2019-05-16T12:48:27.417Z,17.25
2019-05-16T12:50:59.025Z,17.15
2019-05-16T12:53:49.299Z,17.25
2019-05-16T12:56:19.788Z,17.22
2019-05-16T12:58:50.928Z,17.16
2019-05-16T13:01:38.385Z,17.23
2019-05-16T13:04:18.937Z,16.99
2019-05-16T13:07:08.859Z,16.81
2019-05-16T13:09:49.959Z,16.93
2019-05-16T13:12:29.935Z,16.42
2019-05-16T13:15:00.389Z,16.55
2019-05-16T13:17:30.822Z,16.57
2019-05-16T13:20:01.185Z,16.64
2019-05-16T13:22:31.591Z,15.81
2019-05-16T13:25:02.044Z,16.17
2019-05-16T13:27:32.512Z,16.13
2019-05-16T13:30:02.914Z,15.95
2019-05-16T13:32:33.273Z,15.92
2019-05-16T13:35:03.749Z,15.94
2019-05-16T13:37:34.196Z,16.04
2019-05-16T13:40:07.618Z,15.84
2019-05-16T13:42:42.702Z,15.76
2019-05-16T13:45:37.706Z,16.02
2019-05-16T13:48:21.469Z,16.11
2019-05-16T13:50:52.084Z,16.10
2019-05-16T13:53:41.932Z,16.36
2019-05-16T13:56:29.038Z,16.48
2019-05-16T13:58:59.760Z,17.07
2019-05-16T14:01:45.637Z,17.77
2019-05-16T14:04:32.692Z,18.55
2019-05-16T14:07:03.678Z,19.55
2019-05-16T14:09:34.048Z,19.75
2019-05-16T14:12:06.613Z,19.99
2019-05-16T14:14:42.681Z,21.12
2019-05-16T14:17:19.762Z,20.64
2019-05-16T14:19:50.225Z,18.93
2019-05-16T14:22:22.300Z,18.11
2019-05-16T14:24:52.703Z,17.59
2019-05-16T14:27:23.180Z,17.46
2019-05-16T14:29:53.542Z,17.49
2019-05-16T14:32:23.946Z,17.64
2019-05-16T14:34:54.358Z,17.37
2019-05-16T14:37:26.861Z,17.34
2019-05-16T14:40:02.368Z,17.01
2019-05-16T14:42:32.781Z,17.05
2019-05-16T14:45:10.730Z,17.16
2019-05-16T14:48:07.540Z,16.72
2019-05-16T14:50:34.153Z,16.79
2019-05-16T14:53:07.117Z,16.98
2019-05-16T14:55:42.139Z,17.13
2019-05-16T14:58:12.562Z,17.23
2019-05-16T15:00:43.489Z,17.38
2019-05-16T15:03:13.982Z,17.31
2019-05-16T15:05:44.532Z,17.01
2019-05-16T15:08:17.939Z,17.16
2019-05-16T15:11:07.589Z,17.03
2019-05-16T15:13:49.532Z,17.10
2019-05-16T15:16:20.012Z,17.33
2019-05-16T15:18:50.540Z,17.34
2019-05-16T15:21:20.926Z,17.01
2019-05-16T15:23:51.277Z,16.73
2019-05-16T15:26:21.763Z,16.56
2019-05-16T15:28:52.207Z,16.55
2019-05-16T15:31:22.611Z,16.64
2019-05-16T15:33:53.068Z,16.79
2019-05-16T15:36:23.466Z,16.80
2019-05-16T15:38:59.467Z,16.83
2019-05-16T15:41:43.142Z,16.85
2019-05-16T15:44:33.029Z,16.92
2019-05-16T15:47:03.496Z,17.01
2019-05-16T15:49:34.041Z,17.09
2019-05-16T15:52:07.120Z,17.09
2019-05-16T15:58:20.279Z,16.91
2019-05-16T16:03:57.114Z,16.61
2019-05-16T16:06:27.808Z,16.65
2019-05-16T16:08:58.183Z,16.66
2019-05-16T16:11:28.687Z,16.65
2019-05-16T16:14:00.925Z,16.58
2019-05-16T16:16:50.799Z,16.34
2019-05-16T16:19:21.257Z,16.35
2019-05-16T16:21:51.798Z,16.40
2019-05-16T16:24:22.526Z,16.19
2019-05-16T16:26:52.900Z,16.15
2019-05-16T16:29:23.281Z,16.09
2019-05-16T16:31:53.663Z,16.01
2019-05-16T16:34:26.638Z,15.94
2019-05-16T16:37:16.818Z,15.92
2019-05-16T16:39:58.426Z,15.81
2019-05-16T16:42:28.883Z,15.72
2019-05-16T16:44:59.276Z,15.62
2019-05-16T16:47:29.642Z,15.60
2019-05-16T16:50:00.079Z,15.53
2019-05-16T16:52:30.402Z,15.54
2019-05-16T16:55:00.931Z,15.50
2019-05-16T16:57:31.336Z,15.48
2019-05-16T17:00:01.764Z,15.40
2019-05-16T17:02:33.844Z,15.34
2019-05-16T17:05:23.639Z,15.32
2019-05-16T17:07:56.704Z,15.28
2019-05-16T17:10:38.287Z,15.25
2019-05-16T17:13:21.456Z,15.19
2019-05-16T17:16:22.027Z,15.09
2019-05-16T17:19:02.785Z,14.95
2019-05-16T17:21:33.271Z,14.82
2019-05-16T17:24:03.646Z,14.69
2019-05-16T17:26:34.091Z,14.55
2019-05-16T17:29:06.525Z,14.45
2019-05-16T17:31:55.901Z,14.33
2019-05-16T17:34:31.593Z,14.16
2019-05-16T17:37:02.016Z,14.02
2019-05-16T17:39:32.471Z,13.93
2019-05-16T17:42:02.892Z,13.86
2019-05-16T17:44:33.384Z,13.76
2019-05-16T17:47:03.835Z,13.75
2019-05-16T17:49:34.297Z,13.65
2019-05-16T17:52:24.068Z,13.53
2019-05-16T17:54:54.484Z,13.51
2019-05-16T17:57:24.845Z,13.47
2019-05-16T17:59:57.400Z,13.39
2019-05-16T18:02:46.819Z,13.26
2019-05-16T18:08:20.104Z,13.12
2019-05-16T18:11:09.889Z,12.94
2019-05-16T18:13:40.271Z,12.84
2019-05-16T18:16:10.630Z,12.79
2019-05-16T18:18:41.137Z,12.69
2019-05-16T18:21:11.731Z,12.60
2019-05-16T18:23:42.233Z,12.53
2019-05-16T18:26:12.821Z,12.48
2019-05-16T18:28:43.383Z,12.41
2019-05-16T18:31:13.820Z,12.34
2019-05-16T18:33:44.276Z,12.28
2019-05-16T18:36:34.072Z,12.22
2019-05-16T18:39:06.536Z,12.18
2019-05-16T18:41:56.805Z,12.14
2019-05-16T18:44:27.361Z,12.25
2019-05-16T18:47:06.824Z,12.23
2019-05-16T18:49:41.280Z,12.25
2019-05-16T18:52:11.656Z,12.21
2019-05-16T18:54:42.088Z,12.15
2019-05-16T18:57:31.891Z,12.09
2019-05-16T19:00:02.364Z,12.08
2019-05-16T19:02:32.892Z,11.96
2019-05-16T19:05:03.558Z,11.88
2019-05-16T19:07:34.053Z,11.87
2019-05-16T19:10:06.814Z,11.83
2019-05-16T19:12:59.722Z,11.78
2019-05-16T19:15:39.603Z,11.69
2019-05-16T19:18:11.759Z,11.64
2019-05-16T19:21:01.719Z,11.59
2019-05-16T19:23:32.215Z,11.54
2019-05-16T19:26:02.811Z,11.51
2019-05-16T19:28:33.403Z,11.48
2019-05-16T19:31:06.424Z,11.43
2019-05-16T19:33:48.832Z,11.38
2019-05-16T19:36:31.667Z,11.33
2019-05-16T19:39:02.097Z,11.31
2019-05-16T19:41:32.560Z,11.26
2019-05-16T19:44:22.387Z,11.22
2019-05-16T19:46:52.801Z,11.19
2019-05-16T19:49:42.636Z,11.15
2019-05-16T19:52:13.204Z,11.11
2019-05-16T19:54:43.584Z,11.10
2019-05-16T19:57:17.438Z,11.09
2019-05-16T20:05:53.785Z,11.01
2019-05-16T20:08:26.684Z,10.99
2019-05-16T20:11:09.062Z,10.93
2019-05-16T20:13:58.893Z,10.89
2019-05-16T20:16:31.216Z,10.85
2019-05-16T20:19:01.876Z,10.83
2019-05-16T20:21:51.745Z,10.81
2019-05-16T20:24:41.557Z,10.78
2019-05-16T20:27:13.617Z,10.77
2019-05-16T20:29:44.328Z,10.76
2019-05-16T20:32:34.074Z,10.74
2019-05-16T20:35:08.489Z,10.71
2019-05-16T20:37:47.530Z,10.74
2019-05-16T20:40:18.251Z,10.76
2019-05-16T20:43:08.049Z,10.77
2019-05-16T20:45:39.635Z,10.75
2019-05-16T20:48:30.205Z,10.73
2019-05-16T20:51:00.620Z,10.71
2019-05-16T20:53:50.426Z,10.67
2019-05-16T20:56:21.136Z,10.64
2019-05-16T20:59:10.948Z,10.61
2019-05-16T21:01:41.585Z,10.56
2019-05-16T21:04:12.211Z,10.48
2019-05-16T21:07:08.188Z,10.41
2019-05-16T21:09:45.813Z,10.31
2019-05-16T21:12:17.310Z,10.25
2019-05-16T21:15:00.538Z,10.18
2019-05-16T21:17:50.485Z,10.13
2019-05-16T21:20:20.917Z,10.06
2019-05-16T21:22:51.558Z,9.99
2019-05-16T21:25:41.364Z,9.98
2019-05-16T21:28:31.282Z,10.01
2019-05-16T21:31:01.820Z,10.00
2019-05-16T21:33:32.295Z,9.96
2019-05-16T21:36:02.822Z,9.95
2019-05-16T21:38:36.479Z,9.91
2019-05-16T21:41:12.447Z,9.83
2019-05-16T21:43:42.919Z,9.72
2019-05-16T21:46:13.312Z,9.62
2019-05-16T21:48:43.863Z,9.56
2019-05-16T21:51:17.056Z,9.54
2019-05-16T21:53:57.775Z,9.46
2019-05-16T21:56:28.221Z,9.55
2019-05-16T21:58:58.608Z,9.53
2019-05-16T22:01:29.331Z,9.40
2019-05-16T22:03:59.780Z,9.29
2019-05-16T22:06:30.217Z,9.26
2019-05-16T22:09:00.665Z,9.19
2019-05-16T22:12:10.875Z,9.16
2019-05-16T22:21:34.195Z,9.34
2019-05-16T22:24:06.629Z,9.29
2019-05-16T22:26:57.151Z,9.28
2019-05-16T22:29:41.171Z,9.29
2019-05-16T22:32:11.554Z,9.42
2019-05-16T22:34:41.978Z,9.58
2019-05-16T22:37:12.447Z,9.64
2019-05-16T22:39:42.824Z,9.76
2019-05-16T22:42:13.277Z,9.77
2019-05-16T22:44:43.709Z,9.79
2019-05-16T22:47:14.107Z,10.30
2019-05-16T22:49:47.721Z,10.34
2019-05-16T22:52:18.187Z,10.24
2019-05-16T22:54:48.599Z,10.31
2019-05-16T22:57:19.014Z,10.20
2019-05-16T22:59:49.400Z,10.08
2019-05-16T23:02:19.833Z,10.03
2019-05-16T23:04:51.962Z,9.98
2019-05-16T23:08:05.870Z,9.95
2019-05-16T23:10:43.763Z,9.94
2019-05-16T23:13:14.317Z,9.98
2019-05-16T23:19:17.435Z,10.04
2019-05-16T23:21:48.423Z,10.04
2019-05-16T23:27:21.327Z,9.99
2019-05-16T23:29:51.784Z,10.05
2019-05-16T23:35:26.728Z,10.04
2019-05-16T23:38:18.623Z,10.04
2019-05-16T23:40:51.066Z,10.05
2019-05-16T23:43:21.601Z,10.03
2019-05-16T23:45:52.105Z,10.05
2019-05-16T23:48:22.495Z,10.06
2019-05-16T23:50:53.022Z,10.06
2019-05-16T23:53:23.533Z,10.10
2019-05-16T23:56:13.409Z,10.21
2019-05-16T23:59:03.318Z,10.20
